Time;durP1;ratioP1;P1;durP2;ratioP2;P2;SDS_P1;SDS_P2;PMS_P1;PMS_P2;Temp;Humidity;BMP_temperature;BMP_pressure;BME280_temperature;BME280_humidity;BME280_pressure;Samples;Min_cycle;Max_cycle;Signal;HPM_P1;HPM_P2
2023/07/15 00:01:29;;;;;;;5.32;3.33;;;19.20;1.00;;;;;;5019201;28;20034;-65
2023/07/15 00:03:55;;;;;;;5.53;2.90;;;18.90;60.40;;;;;;5018700;28;20148;-65
2023/07/15 00:06:23;;;;;;;6.60;3.13;;;19.60;1.00;;;;;;5019154;28;20425;-66
2023/07/15 00:08:50;;;;;;;4.80;3.28;;;19.00;1.00;;;;;;5019148;28;20050;-65
2023/07/15 00:11:25;;;;;;;6.15;3.08;;;19.30;99.90;;;;;;5018831;28;20482;-65
2023/07/15 00:13:52;;;;;;;4.18;2.55;;;18.80;99.90;;;;;;5017873;28;20041;-68
2023/07/15 00:16:18;;;;;;;4.88;2.70;;;19.50;99.90;;;;;;5018757;28;20052;-65
2023/07/15 00:18:45;;;;;;;6.55;3.22;;;19.00;99.90;;;;;;5015256;28;20053;-67
2023/07/15 00:21:22;;;;;;;5.45;2.70;;;19.10;99.90;;;;;;5015546;28;20046;-65
2023/07/15 00:23:55;;;;;;;4.43;2.78;;;19.10;93.20;;;;;;5014384;28;20068;-65
2023/07/15 00:26:22;;;;;;;4.80;2.80;;;18.80;99.90;;;;;;5015512;28;20116;-65
2023/07/15 00:28:49;;;;;;;5.82;3.10;;;18.80;99.90;;;;;;5014270;28;20045;-65
2023/07/15 00:31:18;;;;;;;5.43;3.00;;;18.80;99.90;;;;;;5014561;28;20117;-65
2023/07/15 00:33:44;;;;;;;5.55;3.17;;;18.60;33.20;;;;;;5015712;28;20493;-65
2023/07/15 00:36:12;;;;;;;4.60;2.90;;;18.80;1.00;;;;;;5014326;28;20061;-65
2023/07/15 00:38:38;;;;;;;6.35;2.47;;;18.80;1.00;;;;;;5015574;28;20073;-65
2023/07/15 00:41:11;;;;;;;5.72;2.97;;;20.00;1.00;;;;;;5015167;28;20046;-64
2023/07/15 00:43:53;;;;;;;5.00;2.72;;;18.80;1.00;;;;;;5013987;28;20050;-64
2023/07/15 00:46:19;;;;;;;4.45;2.50;;;18.80;1.00;;;;;;5013785;28;20046;-64
2023/07/15 00:48:52;;;;;;;3.85;2.75;;;18.80;1.00;;;;;;5013734;28;20067;-64
2023/07/15 00:51:19;;;;;;;6.95;2.83;;;18.80;99.90;;;;;;5014953;28;20148;-64
2023/07/15 00:53:44;;;;;;;3.80;2.65;;;19.20;99.90;;;;;;5014913;28;20049;-66
2023/07/15 00:56:11;;;;;;;5.78;2.85;;;18.80;99.90;;;;;;5013588;28;20042;-65
2023/07/15 00:58:36;;;;;;;6.13;2.42;;;18.80;99.90;;;;;;5015126;28;20124;-64
2023/07/15 01:01:03;;;;;;;6.45;3.10;;;18.80;99.90;;;;;;5014740;28;20076;-64
2023/07/15 01:03:28;;;;;;;7.68;2.70;;;18.80;99.90;;;;;;5014578;28;20574;-64
2023/07/15 01:05:55;;;;;;;4.35;2.90;;;18.80;99.90;;;;;;5014731;28;20050;-64
2023/07/15 01:08:21;;;;;;;3.88;2.42;;;19.00;99.90;;;;;;5014733;28;20409;-64
2023/07/15 01:10:47;;;;;;;5.07;2.40;;;18.70;99.90;;;;;;5013622;28;20046;-64
2023/07/15 01:13:13;;;;;;;5.47;3.15;;;18.80;99.90;;;;;;5014513;28;20057;-64
2023/07/15 01:15:39;;;;;;;5.05;2.88;;;18.70;99.90;;;;;;5014869;28;20109;-64
2023/07/15 01:18:04;;;;;;;4.00;2.88;;;18.90;99.90;;;;;;5014796;28;20080;-66
2023/07/15 01:20:32;;;;;;;3.17;2.58;;;18.70;99.90;;;;;;5013635;28;20550;-64
2023/07/15 01:22:58;;;;;;;5.03;2.78;;;18.20;99.90;;;;;;5014624;28;20050;-64
2023/07/15 01:25:23;;;;;;;5.22;3.22;;;18.80;99.90;;;;;;5013125;28;20037;-64
2023/07/15 01:27:49;;;;;;;7.13;2.88;;;18.80;99.90;;;;;;5014612;28;20164;-64
2023/07/15 01:30:15;;;;;;;11.05;3.25;;;18.50;99.90;;;;;;5013408;28;20042;-64
2023/07/15 01:32:40;;;;;;;6.50;3.05;;;18.80;99.90;;;;;;5014529;28;20046;-65
2023/07/15 01:35:07;;;;;;;7.53;2.92;;;18.80;99.90;;;;;;5014208;28;20041;-64
2023/07/15 01:37:33;;;;;;;4.78;2.90;;;18.90;99.90;;;;;;5014124;28;20034;-64
2023/07/15 01:39:58;;;;;;;4.45;2.58;;;18.90;99.90;;;;;;5014354;28;20087;-64
2023/07/15 01:42:24;;;;;;;5.25;2.60;;;18.70;99.90;;;;;;5014290;28;20497;-64
2023/07/15 01:44:49;;;;;;;4.22;2.42;;;18.90;99.90;;;;;;5014199;28;20077;-64
2023/07/15 01:47:15;;;;;;;5.30;2.60;;;19.00;99.90;;;;;;5014166;28;20401;-64
2023/07/15 01:49:42;;;;;;;5.50;2.42;;;18.60;99.90;;;;;;5012653;28;20069;-64
2023/07/15 01:52:08;;;;;;;7.22;2.38;;;19.00;99.90;;;;;;5013952;28;20045;-64
2023/07/15 01:54:34;;;;;;;5.35;2.55;;;18.80;99.90;;;;;;5014145;28;20125;-65
2023/07/15 01:56:59;;;;;;;4.90;2.67;;;19.00;99.90;;;;;;5014200;28;20233;-64
2023/07/15 01:59:25;;;;;;;4.03;2.47;;;19.20;99.90;;;;;;5013780;28;20054;-64
2023/07/15 02:01:55;;;;;;;4.22;2.40;;;19.00;99.90;;;;;;5014089;28;20112;-64
2023/07/15 02:04:20;;;;;;;4.65;2.28;;;19.00;99.90;;;;;;5028183;28;20070;-64
2023/07/15 02:06:46;;;;;;;4.72;2.78;;;19.20;99.90;;;;;;5013902;28;20096;-64
2023/07/15 02:09:12;;;;;;;4.65;2.38;;;19.10;99.90;;;;;;5013818;28;20076;-64
2023/07/15 02:11:38;;;;;;;4.45;2.08;;;19.10;99.90;;;;;;5013863;28;20038;-64
2023/07/15 02:14:03;;;;;;;5.40;2.25;;;19.10;99.90;;;;;;5012487;28;20148;-64
2023/07/15 02:16:29;;;;;;;3.38;2.25;;;19.10;99.90;;;;;;5013802;28;20042;-65
2023/07/15 02:18:55;;;;;;;4.28;2.40;;;19.10;99.90;;;;;;5013393;28;20501;-64
2023/07/15 02:21:24;;;;;;;3.03;2.13;;;18.90;99.90;;;;;;5013400;28;20038;-64
2023/07/15 02:23:53;;;;;;;3.28;1.92;;;19.20;99.90;;;;;;5013385;28;20057;-64
2023/07/15 02:26:19;;;;;;;3.88;2.47;;;19.20;99.90;;;;;;5013578;28;20034;-66
2023/07/15 02:28:45;;;;;;;3.88;2.45;;;19.70;99.90;;;;;;5013624;28;20520;-64
2023/07/15 02:31:11;;;;;;;4.80;1.83;;;19.20;99.90;;;;;;5011980;28;20069;-64
2023/07/15 02:33:38;;;;;;;3.17;2.00;;;19.30;99.90;;;;;;5013109;28;20096;-64
2023/07/15 02:36:04;;;;;;;5.43;2.00;;;19.40;99.90;;;;;;5013115;28;20073;-64
2023/07/15 02:38:31;;;;;;;5.53;2.45;;;19.40;99.90;;;;;;5013243;28;20053;-64
2023/07/15 02:40:56;;;;;;;4.82;1.90;;;19.40;99.90;;;;;;5012951;28;20088;-64
2023/07/15 02:43:22;;;;;;;4.00;2.30;;;19.40;99.90;;;;;;5013255;28;20042;-64
2023/07/15 02:45:51;;;;;;;4.00;2.22;;;19.40;99.90;;;;;;5013355;28;20042;-64
2023/07/15 02:48:19;;;;;;;2.95;1.92;;;19.90;99.90;;;;;;5012923;28;20038;-64
2023/07/15 02:50:50;;;;;;;3.58;1.70;;;20.00;99.90;;;;;;5011920;28;20497;-64
2023/07/15 02:53:15;;;;;;;6.78;2.25;;;19.40;99.90;;;;;;5011661;28;20049;-65
2023/07/15 02:55:41;;;;;;;4.90;2.25;;;19.40;99.90;;;;;;5012862;28;20071;-64
2023/07/15 02:58:07;;;;;;;4.00;2.40;;;19.40;99.60;;;;;;5012885;28;20126;-64
2023/07/15 03:00:32;;;;;;;4.60;1.80;;;20.00;99.80;;;;;;5012877;28;20038;-64
2023/07/15 03:02:58;;;;;;;5.50;1.95;;;19.40;97.90;;;;;;5012779;28;20049;-64
2023/07/15 03:05:24;;;;;;;6.50;2.00;;;19.30;98.10;;;;;;5011827;28;20050;-64
2023/07/15 03:07:50;;;;;;;2.92;2.13;;;19.40;97.30;;;;;;5013083;28;20037;-64
2023/07/15 03:10:15;;;;;;;2.67;1.88;;;19.30;98.30;;;;;;5012721;28;20505;-65
2023/07/15 03:12:44;;;;;;;4.93;2.22;;;19.60;96.60;;;;;;5013069;28;20121;-64
2023/07/15 03:15:10;;;;;;;3.33;2.08;;;18.90;96.00;;;;;;5012740;28;20053;-64
2023/07/15 03:17:36;;;;;;;2.88;2.08;;;19.40;95.90;;;;;;5012975;28;20046;-64
2023/07/15 03:20:14;;;;;;;3.65;1.90;;;19.20;94.50;;;;;;5012993;28;20496;-65
2023/07/15 03:22:40;;;;;;;5.68;1.95;;;19.20;93.20;;;;;;5013095;28;20398;-64
2023/07/15 03:25:06;;;;;;;4.13;2.28;;;19.10;94.80;;;;;;5012946;28;20034;-65
2023/07/15 03:27:32;;;;;;;3.75;2.72;;;19.10;94.60;;;;;;5012999;28;20456;-64
2023/07/15 03:29:58;;;;;;;3.15;1.83;;;19.30;94.10;;;;;;5011571;28;20081;-64
2023/07/15 03:32:23;;;;;;;3.75;1.95;;;19.10;93.60;;;;;;5012831;28;20033;-65
2023/07/15 03:34:49;;;;;;;7.97;2.58;;;19.10;94.10;;;;;;5012621;28;20049;-64
2023/07/15 03:37:15;;;;;;;2.45;1.92;;;18.60;93.00;;;;;;5012582;28;20045;-66
2023/07/15 03:39:41;;;;;;;3.88;2.13;;;19.10;93.30;;;;;;5012917;28;20117;-64
2023/07/15 03:42:07;;;;;;;5.63;2.15;;;19.10;92.80;;;;;;5012842;28;20042;-64
2023/07/15 03:44:32;;;;;;;2.95;2.00;;;19.20;92.70;;;;;;5012775;28;20132;-64
2023/07/15 03:46:58;;;;;;;4.03;2.00;;;19.60;92.10;;;;;;5013343;28;20477;-63
2023/07/15 03:49:24;;;;;;;5.75;2.38;;;19.30;92.30;;;;;;5012560;28;20050;-63
2023/07/15 03:51:50;;;;;;;7.47;1.85;;;19.10;92.80;;;;;;5012808;28;20502;-63
2023/07/15 03:54:16;;;;;;;3.33;2.03;;;19.00;93.00;;;;;;5016130;28;20097;-62
2023/07/15 03:56:41;;;;;;;3.88;1.95;;;19.00;92.60;;;;;;5016471;28;20092;-64
2023/07/15 03:59:07;;;;;;;4.55;2.13;;;19.00;93.00;;;;;;5016136;28;20037;-63
2023/07/15 04:01:34;;;;;;;4.63;2.17;;;18.90;92.60;;;;;;5016408;28;20095;-63
2023/07/15 04:04:04;;;;;;;3.55;1.95;;;19.00;92.50;;;;;;5015900;28;20085;-62
2023/07/15 04:06:32;;;;;;;6.67;2.23;;;19.00;92.50;;;;;;5016270;28;20046;-62
2023/07/15 04:08:57;;;;;;;6.85;2.38;;;19.00;92.30;;;;;;5016145;28;20088;-63
2023/07/15 04:11:23;;;;;;;3.00;1.55;;;18.70;92.60;;;;;;5015849;28;20046;-62
2023/07/15 04:13:48;;;;;;;5.05;1.90;;;18.90;93.00;;;;;;5016294;28;20046;-63
2023/07/15 04:16:14;;;;;;;5.30;2.38;;;18.90;92.70;;;;;;5015671;28;20463;-62
2023/07/15 04:18:42;;;;;;;3.35;2.22;;;18.90;93.60;;;;;;5016042;28;20046;-62
2023/07/15 04:21:08;;;;;;;3.90;1.88;;;18.90;94.80;;;;;;5015877;28;20096;-62
2023/07/15 04:23:33;;;;;;;3.10;1.95;;;19.40;94.80;;;;;;5015546;28;20077;-62
2023/07/15 04:25:59;;;;;;;3.70;2.20;;;18.80;96.10;;;;;;5015529;28;20041;-63
2023/07/15 04:28:25;;;;;;;3.80;2.45;;;18.90;96.60;;;;;;5015793;28;20030;-62
2023/07/15 04:30:50;;;;;;;3.85;2.03;;;18.50;96.90;;;;;;5015764;28;20074;-63
2023/07/15 04:33:16;;;;;;;3.92;1.98;;;18.90;97.40;;;;;;5014120;28;20049;-63
2023/07/15 04:35:43;;;;;;;3.90;1.90;;;18.70;96.80;;;;;;5014195;28;20184;-62
2023/07/15 04:38:10;;;;;;;4.00;2.08;;;19.00;96.80;;;;;;5015323;28;20172;-63
2023/07/15 04:40:35;;;;;;;3.75;1.88;;;18.70;97.10;;;;;;5015901;28;20041;-63
2023/07/15 04:43:01;;;;;;;6.47;2.38;;;19.70;96.80;;;;;;5015354;28;20045;-63
2023/07/15 04:45:27;;;;;;;5.10;2.30;;;19.00;97.00;;;;;;5015498;28;20124;-63
2023/07/15 04:47:52;;;;;;;4.18;2.40;;;19.00;97.50;;;;;;5015410;28;20121;-62
2023/07/15 04:50:18;;;;;;;2.95;1.85;;;19.20;97.60;;;;;;5015266;28;20038;-63
2023/07/15 04:52:43;;;;;;;4.07;2.35;;;19.10;98.00;;;;;;5015229;28;20030;-62
2023/07/15 04:55:10;;;;;;;3.63;1.90;;;19.10;98.60;;;;;;5015006;28;20529;-63
2023/07/15 04:57:36;;;;;;;3.80;2.10;;;19.10;99.10;;;;;;5015281;28;20048;-62
2023/07/15 05:00:02;;;;;;;3.10;2.00;;;19.20;99.90;;;;;;5014880;28;20045;-63
2023/07/15 05:02:28;;;;;;;3.25;1.70;;;19.20;99.90;;;;;;5014959;28;20608;-63
2023/07/15 05:04:54;;;;;;;6.85;2.35;;;19.30;99.90;;;;;;5014661;28;20116;-63
2023/07/15 05:07:19;;;;;;;5.05;2.08;;;19.20;99.90;;;;;;5015082;28;20485;-63
2023/07/15 05:09:46;;;;;;;3.40;1.90;;;19.20;99.90;;;;;;5014995;28;20061;-62
2023/07/15 05:12:12;;;;;;;6.55;2.15;;;19.30;99.90;;;;;;5014916;28;20065;-63
2023/07/15 05:14:37;;;;;;;4.18;2.00;;;19.60;99.90;;;;;;5014589;28;20034;-62
2023/07/15 05:17:05;;;;;;;5.60;2.42;;;19.40;99.90;;;;;;5014837;28;20042;-62
2023/07/15 05:19:32;;;;;;;3.20;2.10;;;19.50;99.90;;;;;;5014562;28;20038;-63
2023/07/15 05:21:57;;;;;;;5.75;2.13;;;19.60;99.90;;;;;;5013468;28;20046;-63
2023/07/15 05:24:28;;;;;;;3.25;1.92;;;19.30;99.90;;;;;;5014659;28;20038;-62
2023/07/15 05:26:54;;;;;;;3.50;2.22;;;19.70;99.90;;;;;;5013167;28;20049;-62
2023/07/15 05:29:20;;;;;;;2.85;1.90;;;19.80;99.90;;;;;;5014628;28;20042;-62
2023/07/15 05:31:46;;;;;;;5.72;1.80;;;19.80;99.90;;;;;;5013462;28;20041;-67
2023/07/15 05:34:11;;;;;;;2.97;1.63;;;19.90;99.90;;;;;;5029545;28;20042;-63
2023/07/15 05:36:37;;;;;;;6.93;2.60;;;19.90;99.90;;;;;;5014497;28;20042;-62
2023/07/15 05:39:03;;;;;;;3.38;1.77;;;20.50;99.90;;;;;;5014478;28;20064;-63
2023/07/15 05:41:28;;;;;;;4.40;2.30;;;20.30;99.90;;;;;;5014446;28;20497;-63
2023/07/15 05:43:54;;;;;;;4.75;2.13;;;20.20;99.90;;;;;;5014222;28;20505;-63
2023/07/15 05:46:20;;;;;;;5.38;1.80;;;20.30;99.90;;;;;;5014327;28;20077;-63
2023/07/15 05:48:46;;;;;;;3.35;1.98;;;20.60;99.90;;;;;;5013965;28;20077;-63
2023/07/15 05:51:11;;;;;;;4.25;2.00;;;20.40;99.90;;;;;;5013934;28;20056;-63
2023/07/15 05:53:37;;;;;;;3.30;1.83;;;20.50;99.90;;;;;;5013934;28;20049;-63
2023/07/15 05:56:03;;;;;;;4.18;1.98;;;20.50;99.90;;;;;;5012599;28;20054;-63
2023/07/15 05:58:29;;;;;;;3.58;1.70;;;20.60;99.60;;;;;;4996315;28;20064;-64
2023/07/15 06:00:55;;;;;;;4.25;1.77;;;20.30;98.30;;;;;;5014062;28;20034;-63
2023/07/15 06:03:20;;;;;;;3.95;1.92;;;21.20;99.90;;;;;;5013620;28;20058;-62
2023/07/15 06:05:46;;;;;;;4.60;1.90;;;21.60;99.90;;;;;;5014106;28;20112;-63
2023/07/15 06:08:11;;;;;;;4.38;2.30;;;21.40;1.00;;;;;;5014003;28;20449;-63
2023/07/15 06:10:37;;;;;;;5.30;2.00;;;21.50;1.00;;;;;;5014022;28;20030;-63
2023/07/15 06:13:03;;;;;;;4.15;1.70;;;;;;;;;;5013860;28;20038;-63
2023/07/15 06:15:29;;;;;;;2.90;1.75;;;;;;;;;;5013356;28;20085;-63
2023/07/15 06:17:57;;;;;;;4.00;1.95;;;;;;;;;;5013869;28;20060;-63
2023/07/15 06:20:23;;;;;;;3.83;2.00;;;;;;;;;;5013859;28;20112;-63
2023/07/15 06:22:49;;;;;;;2.83;1.70;;;;;;;;;;5013788;28;20069;-62
2023/07/15 06:25:17;;;;;;;3.85;1.60;;;;;;;;;;5013670;28;20096;-62
2023/07/15 06:27:43;;;;;;;3.38;1.90;;;;;;;;;;5013686;28;20038;-62
2023/07/15 06:30:09;;;;;;;3.42;1.63;;;;;;;;;;5013661;28;20046;-62
2023/07/15 06:32:35;;;;;;;3.55;1.80;;;;;;;;;;5012301;28;20048;-63
2023/07/15 06:35:02;;;;;;;4.15;1.70;;;;;;;;;;5013359;28;20046;-62
2023/07/15 06:37:28;;;;;;;4.82;1.65;;;;;;;;;;5012215;28;20041;-62
2023/07/15 06:39:54;;;;;;;4.82;1.58;;;;;;;;;;5013528;28;20041;-62
2023/07/15 06:42:20;;;;;;;3.67;1.85;;;;;;;;;;5011931;28;20046;-63
2023/07/15 06:44:46;;;;;;;2.55;1.45;;;;;;;;;;5013364;28;20037;-63
2023/07/15 06:47:12;;;;;;;4.25;1.67;;;;;;;;;;5013383;28;20034;-63
2023/07/15 06:49:37;;;;;;;4.85;1.85;;;;;;;;;;5013080;28;20045;-64
2023/07/15 06:52:04;;;;;;;3.08;1.55;;;;;;;;;;5013368;28;20096;-63
2023/07/15 06:54:31;;;;;;;4.38;1.92;;;;;;;;;;5013346;28;20045;-62
2023/07/15 06:56:57;;;;;;;3.70;1.60;;;;;;;;;;5013319;28;20117;-63
2023/07/15 06:59:23;;;;;;;2.92;1.55;;;;;;;;;;5012854;28;20044;-62
2023/07/15 07:01:49;;;;;;;4.80;1.70;;;;;;;;;;5012972;28;20042;-62
2023/07/15 07:04:15;;;;;;;4.28;2.08;;;;;;;;;;5011426;28;20113;-62
2023/07/15 07:06:41;;;;;;;3.40;1.67;;;;;;;;;;5013176;28;20049;-62
2023/07/15 07:09:07;;;;;;;3.03;1.58;;;;;;;;;;5012758;28;20091;-67
2023/07/15 07:11:33;;;;;;;5.07;1.52;;;;;;;;;;5028190;28;20091;-65
2023/07/15 07:13:59;;;;;;;3.20;1.70;;;;;;;;;;5011489;28;20045;-65
2023/07/15 07:16:25;;;;;;;3.08;1.65;;;23.30;1.00;;;;;;5013063;28;20041;-65
2023/07/15 07:18:50;;;;;;;5.93;1.85;;;23.40;99.90;;;;;;5012758;28;20401;-66
2023/07/15 07:21:17;;;;;;;2.75;1.58;;;;;;;;;;5012976;28;20045;-65
2023/07/15 07:23:43;;;;;;;2.60;1.50;;;;;;;;;;5012993;28;20146;-65
2023/07/15 07:26:09;;;;;;;3.00;1.35;;;;;;;;;;5013552;28;20128;-66
2023/07/15 07:28:42;;;;;;;2.53;1.80;;;;;;;;;;5017028;28;20046;-66
2023/07/15 07:31:08;;;;;;;3.95;1.77;;;;;;;;;;5016916;28;20466;-66
2023/07/15 07:33:34;;;;;;;3.42;1.75;;;;;;;;;;5015276;28;20129;-70
2023/07/15 07:36:00;;;;;;;2.92;1.52;;;;;;;;;;5016406;28;20054;-66
2023/07/15 07:38:26;;;;;;;3.40;1.85;;;23.80;99.90;;;;;;5016815;28;20046;-67
2023/07/15 07:40:51;;;;;;;4.40;2.00;;;24.00;99.90;;;;;;5016453;28;20049;-68
2023/07/15 07:43:17;;;;;;;3.10;1.83;;;24.00;99.90;;;;;;5016667;28;20133;-68
2023/07/15 07:45:42;;;;;;;4.97;1.77;;;23.90;99.90;;;;;;5016645;28;20474;-68
2023/07/15 07:48:08;;;;;;;2.67;1.58;;;23.90;99.90;;;;;;5016330;28;20046;-68
2023/07/15 07:50:35;;;;;;;4.93;2.40;;;23.90;99.90;;;;;;5016579;28;20034;-68
2023/07/15 07:53:00;;;;;;;4.38;1.92;;;23.90;99.90;;;;;;5016110;28;20038;-64
2023/07/15 07:55:26;;;;;;;7.05;2.42;;;24.00;99.90;;;;;;5015059;28;20092;-64
2023/07/15 07:57:52;;;;;;;3.58;1.98;;;;;;;;;;5016451;28;20370;-64
2023/07/15 08:00:18;;;;;;;5.85;1.45;;;;;;;;;;5016351;28;20057;-64
2023/07/15 08:02:44;;;;;;;4.70;1.40;;;;;;;;;;5015907;28;20465;-64
2023/07/15 08:05:10;;;;;;;1.52;1.15;;;;;;;;;;5015023;28;20131;-65
2023/07/15 08:07:36;;;;;;;2.80;1.50;;;;;;;;;;5016283;28;20041;-64
2023/07/15 08:10:02;;;;;;;4.15;1.67;;;;;;;;;;5014681;28;20387;-64
2023/07/15 08:12:28;;;;;;;2.95;1.58;;;;;;;;;;5016177;28;20073;-64
2023/07/15 08:14:54;;;;;;;3.15;1.40;;;;;;;;;;5015825;28;20454;-64
2023/07/15 08:17:20;;;;;;;4.05;1.38;;;;;;;;;;5016047;28;20052;-67
2023/07/15 08:19:46;;;;;;;3.50;1.30;;;;;;;;;;5016045;28;20053;-67
2023/07/15 08:22:12;;;;;;;1.83;1.10;;;;;;;;;;5015844;28;20042;-67
2023/07/15 08:24:38;;;;;;;3.40;1.05;;;;;;;;;;5015729;28;20081;-67
2023/07/15 08:27:04;;;;;;;5.72;0.93;;;;;;;;;;5015512;28;20482;-67
2023/07/15 08:29:30;;;;;;;1.35;1.13;;;;;;;;;;5015681;28;20042;-67
2023/07/15 08:31:56;;;;;;;2.47;1.25;;;;;;;;;;5015691;28;20540;-66
2023/07/15 08:34:22;;;;;;;1.30;1.08;;;;;;;;;;5015548;28;20049;-67
2023/07/15 08:36:48;;;;;;;2.28;1.40;;;;;;;;;;5013962;28;20065;-67
2023/07/15 08:39:14;;;;;;;2.25;1.15;;;;;;;;;;5013148;28;20050;-67
2023/07/15 08:41:41;;;;;;;2.10;1.20;;;;;;;;;;5015358;28;20050;-66
2023/07/15 08:44:07;;;;;;;3.47;1.70;;;;;;;;;;5014882;28;20061;-66
2023/07/15 08:46:33;;;;;;;2.00;1.25;;;;;;;;;;5015161;28;20042;-66
2023/07/15 08:49:01;;;;;;;1.70;1.20;;;;;;;;;;5015310;28;20474;-67
2023/07/15 08:51:34;;;;;;;4.80;1.40;;;;;;;;;;5015232;28;20042;-67
2023/07/15 08:54:05;;;;;;;3.38;1.60;;;;;;;;;;5015067;28;20404;-73
2023/07/15 08:56:34;;;;;;;1.40;1.08;;;;;;;;;;4997578;28;20133;-67
2023/07/15 08:59:00;;;;;;;2.28;1.50;;;;;;;;;;5013801;28;20224;-67
2023/07/15 09:01:26;;;;;;;2.80;1.55;;;25.10;1.00;;;;;;5015104;28;20115;-65
2023/07/15 09:03:51;;;;;;;3.13;1.30;;;25.30;99.90;;;;;;5014552;28;20042;-65
2023/07/15 09:06:17;;;;;;;2.65;1.38;;;25.00;99.90;;;;;;5013491;28;20041;-65
2023/07/15 09:08:49;;;;;;;2.90;1.10;;;24.80;92.60;;;;;;5014928;28;20030;-66
2023/07/15 09:11:15;;;;;;;3.22;1.27;;;25.00;92.50;;;;;;5014886;28;20033;-65
2023/07/15 09:13:40;;;;;;;3.55;1.60;;;25.00;92.90;;;;;;5013410;28;20108;-65
2023/07/15 09:16:06;;;;;;;2.00;1.20;;;24.80;92.30;;;;;;5014912;28;20056;-66
2023/07/15 09:18:39;;;;;;;2.78;1.33;;;24.80;92.60;;;;;;5015129;28;20052;-66
2023/07/15 09:21:12;;;;;;;2.85;1.55;;;24.80;93.20;;;;;;5014852;28;20048;-63
2023/07/15 09:23:40;;;;;;;3.05;1.60;;;24.80;93.40;;;;;;5014414;28;20050;-63
2023/07/15 09:26:06;;;;;;;2.60;1.58;;;24.90;93.90;;;;;;5014544;28;20405;-63
2023/07/15 09:28:32;;;;;;;3.63;1.67;;;24.80;94.20;;;;;;5014422;28;20033;-63
2023/07/15 09:30:59;;;;;;;2.63;1.30;;;25.00;94.20;;;;;;5014582;28;20120;-63
2023/07/15 09:33:31;;;;;;;4.18;1.50;;;25.00;93.90;;;;;;5014407;28;20453;-63
2023/07/15 09:35:57;;;;;;;1.85;1.30;;;24.90;94.20;;;;;;5014359;28;20080;-63
2023/07/15 09:38:23;;;;;;;3.75;1.88;;;24.90;93.80;;;;;;5014458;28;20489;-63
2023/07/15 09:40:49;;;;;;;2.42;1.40;;;24.80;94.80;;;;;;5014588;28;20371;-63
2023/07/15 09:43:15;;;;;;;2.25;1.48;;;24.70;94.70;;;;;;5014345;28;20466;-62
2023/07/15 09:45:41;;;;;;;2.70;1.48;;;25.20;95.40;;;;;;5014313;28;20044;-66
2023/07/15 09:48:12;;;;;;;3.05;1.25;;;25.50;94.30;;;;;;5014401;28;20033;-65
2023/07/15 09:50:40;;;;;;;1.42;1.20;;;25.10;93.30;;;;;;5013417;28;20394;-66
2023/07/15 09:53:06;;;;;;;1.92;1.20;;;25.10;92.90;;;;;;5014242;28;20092;-66
2023/07/15 09:55:33;;;;;;;2.22;1.42;;;25.10;93.20;;;;;;5014215;28;20037;-66
2023/07/15 09:58:09;;;;;;;2.53;1.38;;;25.20;93.50;;;;;;5014189;28;20041;-65
2023/07/15 10:00:38;;;;;;;1.83;1.35;;;25.10;92.20;;;;;;5012687;28;20084;-66
2023/07/15 10:03:05;;;;;;;2.92;1.50;;;25.50;94.30;;;;;;5013777;28;20104;-66
2023/07/15 10:05:32;;;;;;;3.17;1.20;;;25.50;95.80;;;;;;5014080;28;20093;-66
2023/07/15 10:07:58;;;;;;;1.88;1.30;;;25.60;95.10;;;;;;5014057;28;20118;-66
2023/07/15 10:10:23;;;;;;;1.95;1.35;;;25.70;94.60;;;;;;5012752;28;20087;-66
2023/07/15 10:12:49;;;;;;;2.60;1.50;;;25.70;94.20;;;;;;5013950;28;20042;-65
2023/07/15 10:15:16;;;;;;;2.50;1.63;;;25.80;93.70;;;;;;5013513;28;20042;-66
2023/07/15 10:17:44;;;;;;;2.03;1.20;;;25.70;91.10;;;;;;5013874;28;20034;-67
2023/07/15 10:20:10;;;;;;;2.03;1.30;;;25.70;90.10;;;;;;5013820;28;20041;-65
2023/07/15 10:22:37;;;;;;;2.08;1.48;;;25.80;86.10;;;;;;5013629;28;20037;-65
2023/07/15 10:25:05;;;;;;;3.67;1.60;;;25.90;79.30;;;;;;5011961;28;20037;-66
2023/07/15 10:27:32;;;;;;;3.67;1.48;;;26.00;84.30;;;;;;5013149;28;20053;-65
2023/07/15 10:30:26;;;;;;;2.47;1.30;;;26.10;80.80;;;;;;5013257;28;20433;-66
2023/07/15 10:32:58;;;;;;;2.28;1.55;;;26.10;75.70;;;;;;5013680;28;20037;-64
2023/07/15 10:35:26;;;;;;;1.58;1.10;;;26.10;77.70;;;;;;5013547;28;20050;-66
2023/07/15 10:37:51;;;;;;;2.33;1.40;;;26.10;76.90;;;;;;5013257;28;20049;-65
2023/07/15 10:40:49;;;;;;;2.03;1.55;;;26.20;77.40;;;;;;5013751;28;20489;-72
2023/07/15 10:43:22;;;;;;;2.42;1.30;;;26.20;77.90;;;;;;5013017;28;20429;-68
2023/07/15 10:45:53;;;;;;;5.13;1.30;;;26.30;76.40;;;;;;5013347;28;20121;-70
2023/07/15 10:48:19;;;;;;;9.93;1.30;;;26.80;75.00;;;;;;5013341;28;20084;-69
2023/07/15 10:50:52;;;;;;;2.88;1.45;;;26.10;73.80;;;;;;5013331;28;20168;-70
2023/07/15 10:53:23;;;;;;;1.35;1.20;;;26.10;74.40;;;;;;5013380;28;20049;-71
2023/07/15 10:56:00;;;;;;;3.10;1.13;;;26.00;72.90;;;;;;5012984;28;20042;-67
2023/07/15 10:58:27;;;;;;;2.80;1.55;;;26.10;72.50;;;;;;4995412;28;20056;-70
2023/07/15 11:01:00;;;;;;;1.67;1.30;;;26.20;72.60;;;;;;5012530;28;20037;-69
2023/07/15 11:03:26;;;;;;;3.40;1.23;;;27.00;67.40;;;;;;5012830;28;20099;-69
2023/07/15 11:05:55;;;;;;;3.53;1.33;;;26.00;65.40;;;;;;5011937;28;20504;-70
2023/07/15 11:08:20;;;;;;;4.45;1.65;;;25.90;62.30;;;;;;5012878;28;20042;-69
2023/07/15 11:10:47;;;;;;;2.25;1.00;;;25.90;62.90;;;;;;5011845;28;20034;-70
2023/07/15 11:13:14;;;;;;;1.83;1.20;;;25.70;62.60;;;;;;5012682;28;20033;-70
2023/07/15 11:15:40;;;;;;;1.92;1.08;;;25.70;64.40;;;;;;5013094;28;20042;-69
2023/07/15 11:18:13;;;;;;;7.13;1.20;;;25.60;63.20;;;;;;5011801;28;20100;-69
2023/07/15 11:20:38;;;;;;;3.50;1.30;;;25.70;66.10;;;;;;5013097;28;20040;-70
2023/07/15 11:23:04;;;;;;;1.90;1.05;;;25.90;68.90;;;;;;5013076;28;20480;-70
2023/07/15 11:25:30;;;;;;;1.48;1.25;;;26.20;70.50;;;;;;5013044;28;20049;-70
2023/07/15 11:27:59;;;;;;;2.42;1.45;;;26.40;74.00;;;;;;5013062;28;20074;-70
2023/07/15 11:30:32;;;;;;;3.35;1.13;;;26.40;66.60;;;;;;5013029;28;20037;-70
2023/07/15 11:32:58;;;;;;;2.17;1.40;;;26.40;67.70;;;;;;5012691;28;20060;-70
2023/07/15 11:35:23;;;;;;;3.13;1.10;;;26.40;66.00;;;;;;5012958;28;20038;-67
2023/07/15 11:37:49;;;;;;;1.45;1.10;;;26.90;66.30;;;;;;5013045;28;20042;-71
2023/07/15 11:40:16;;;;;;;1.80;1.10;;;26.40;65.00;;;;;;5011418;28;20128;-69
2023/07/15 11:42:42;;;;;;;1.88;1.10;;;26.40;63.60;;;;;;5011354;28;20053;-70
2023/07/15 11:45:08;;;;;;;4.93;1.42;;;26.30;77.50;;;;;;5012759;28;20045;-70
2023/07/15 11:47:35;;;;;;;4.28;1.30;;;26.10;60.60;;;;;;5012916;28;20038;-70
2023/07/15 11:50:02;;;;;;;6.07;1.73;;;25.90;57.60;;;;;;5012826;28;20049;-70
2023/07/15 11:52:27;;;;;;;3.42;1.80;;;26.20;57.30;;;;;;5011469;28;20042;-70
2023/07/15 11:54:53;;;;;;;8.43;1.48;;;25.90;57.70;;;;;;5012746;28;20038;-70
2023/07/15 11:57:28;;;;;;;3.45;1.50;;;25.90;58.50;;;;;;5012796;28;20042;-75
2023/07/15 11:59:54;;;;;;;4.13;1.60;;;25.20;58.40;;;;;;5012693;28;20379;-70
2023/07/15 12:02:20;;;;;;;2.15;1.33;;;25.40;56.20;;;;;;5012238;28;20125;-70
2023/07/15 12:04:47;;;;;;;2.28;1.35;;;25.50;56.00;;;;;;5012641;28;20045;-71
2023/07/15 12:07:13;;;;;;;2.03;1.23;;;25.50;57.20;;;;;;5012569;28;20038;-70
2023/07/15 12:09:39;;;;;;;2.03;1.20;;;25.30;58.30;;;;;;5012666;28;20440;-71
2023/07/15 12:12:05;;;;;;;4.25;1.30;;;25.20;60.00;;;;;;5012573;28;20042;-70
2023/07/15 12:14:31;;;;;;;3.03;1.50;;;25.20;61.90;;;;;;5014929;28;20048;-71
2023/07/15 12:16:59;;;;;;;2.10;1.20;;;25.20;61.80;;;;;;5016085;28;20124;-70
2023/07/15 12:19:25;;;;;;;3.55;1.05;;;25.20;62.50;;;;;;5016104;28;20046;-71
2023/07/15 12:21:52;;;;;;;1.88;1.13;;;25.30;63.20;;;;;;5016053;28;20488;-70
2023/07/15 12:24:17;;;;;;;2.20;1.30;;;25.90;66.90;;;;;;5014651;28;20045;-71
2023/07/15 12:26:43;;;;;;;2.10;1.17;;;25.40;63.80;;;;;;5016000;28;20436;-70
2023/07/15 12:29:09;;;;;;;1.73;1.17;;;25.50;63.50;;;;;;5015959;28;20045;-70
2023/07/15 12:31:34;;;;;;;2.25;1.05;;;25.50;62.50;;;;;;5014292;28;20071;-70
2023/07/15 12:34:00;;;;;;;2.45;1.50;;;25.50;62.80;;;;;;5015795;28;20509;-74
2023/07/15 12:36:26;;;;;;;1.77;1.00;;;25.90;62.20;;;;;;5014187;28;20042;-70
2023/07/15 12:38:51;;;;;;;4.13;1.55;;;25.60;64.10;;;;;;5015720;28;20473;-70
2023/07/15 12:41:17;;;;;;;2.05;1.08;;;25.50;63.80;;;;;;5015629;28;20081;-69
2023/07/15 12:43:43;;;;;;;1.65;1.10;;;25.70;60.80;;;;;;5015519;28;20045;-70
2023/07/15 12:46:08;;;;;;;1.85;1.40;;;25.40;60.00;;;;;;5015272;28;20038;-70
2023/07/15 12:48:34;;;;;;;4.75;1.35;;;25.50;61.50;;;;;;5015303;28;20034;-70
2023/07/15 12:51:00;;;;;;;6.18;1.30;;;25.40;58.10;;;;;;5015457;28;20077;-70
2023/07/15 12:53:26;;;;;;;2.38;1.38;;;25.50;58.40;;;;;;5013949;28;20038;-70
2023/07/15 12:55:55;;;;;;;3.60;1.27;;;25.50;57.00;;;;;;5015489;28;20125;-70
2023/07/15 12:58:21;;;;;;;2.33;1.30;;;25.50;53.50;;;;;;5015391;28;20046;-70
2023/07/15 13:00:47;;;;;;;2.55;1.25;;;26.00;55.20;;;;;;5015311;28;20038;-70
2023/07/15 13:03:13;;;;;;;3.87;1.20;;;26.10;60.10;;;;;;5014844;28;20092;-70